createdAt,value
2018-06-03T00:00:52.996Z,99.99
2018-06-03T00:01:52.988Z,99.99
2018-06-03T00:02:53.028Z,99.99
2018-06-03T00:03:52.961Z,99.99
2018-06-03T00:04:52.951Z,99.99
2018-06-03T00:05:52.936Z,99.99
2018-06-03T00:06:52.939Z,99.99
2018-06-03T00:08:52.898Z,99.99
2018-06-03T00:09:52.902Z,99.99
2018-06-03T00:10:52.882Z,99.99
2018-06-03T00:11:52.872Z,99.99
2018-06-03T00:12:52.855Z,99.99
2018-06-03T00:13:52.845Z,99.99
2018-06-03T00:14:52.840Z,99.99
2018-06-03T00:15:52.834Z,99.99
2018-06-03T00:16:52.820Z,99.99
2018-06-03T00:17:52.801Z,99.99
2018-06-03T00:18:52.789Z,99.99
2018-06-03T00:19:52.777Z,99.99
2018-06-03T00:20:52.771Z,99.99
2018-06-03T00:21:52.761Z,99.99
2018-06-03T00:22:52.739Z,99.99
2018-06-03T00:23:52.739Z,99.99
2018-06-03T00:24:52.723Z,99.99
2018-06-03T00:25:52.710Z,99.99
2018-06-03T00:26:52.704Z,99.99
2018-06-03T00:27:52.690Z,99.99
2018-06-03T00:28:52.681Z,99.99
2018-06-03T00:29:52.669Z,99.99
2018-06-03T00:30:52.660Z,99.99
2018-06-03T00:31:52.642Z,99.99
2018-06-03T00:32:52.633Z,99.99
2018-06-03T00:35:52.595Z,99.99
2018-06-03T00:36:52.585Z,99.99
2018-06-03T00:37:52.583Z,99.99
2018-06-03T00:38:52.563Z,99.99
2018-06-03T00:41:52.531Z,99.99
2018-06-03T00:42:52.518Z,99.99
2018-06-03T00:43:52.508Z,99.99
2018-06-03T00:44:52.495Z,99.99
2018-06-03T00:45:52.485Z,99.99
2018-06-03T00:46:52.473Z,99.99
2018-06-03T00:47:52.461Z,99.99
2018-06-03T00:49:52.441Z,99.99
2018-06-03T00:50:52.425Z,99.99
2018-06-03T00:51:52.416Z,99.99
2018-06-03T00:52:52.466Z,99.99
2018-06-03T00:53:52.390Z,99.99
2018-06-03T00:54:52.418Z,99.99
2018-06-03T00:55:52.370Z,99.99
2018-06-03T00:56:52.362Z,99.99
2018-06-03T00:57:52.344Z,99.99
2018-06-03T00:59:52.325Z,99.99
2018-06-03T01:00:52.312Z,99.99
2018-06-03T01:01:52.315Z,99.99
2018-06-03T01:02:52.287Z,99.99
2018-06-03T01:09:52.212Z,99.99
2018-06-03T01:10:52.194Z,99.99
2018-06-03T01:11:52.187Z,99.99
2018-06-03T01:12:52.174Z,99.99
2018-06-03T01:13:52.161Z,99.99
2018-06-03T01:14:52.145Z,99.99
2018-06-03T01:16:52.177Z,99.99
2018-06-03T01:17:52.116Z,99.99
2018-06-03T01:18:52.101Z,99.99
2018-06-03T01:19:52.187Z,99.99
2018-06-03T01:20:52.078Z,99.99
2018-06-03T01:21:52.068Z,99.99
2018-06-03T01:22:52.062Z,99.99
2018-06-03T01:23:52.040Z,99.99
2018-06-03T01:24:52.036Z,99.99
2018-06-03T01:26:52.024Z,99.99
2018-06-03T01:27:52.001Z,99.99
2018-06-03T01:28:52.008Z,99.99
2018-06-03T01:29:51.980Z,99.99
2018-06-03T01:30:51.965Z,99.99
2018-06-03T01:31:51.953Z,99.99
2018-06-03T01:32:51.941Z,99.99
2018-06-03T01:33:51.927Z,99.99
2018-06-03T01:34:51.921Z,99.99
2018-06-03T01:35:51.912Z,99.99
2018-06-03T01:36:51.888Z,99.99
2018-06-03T01:37:51.886Z,99.99
2018-06-03T01:38:51.891Z,99.99
2018-06-03T01:39:51.864Z,99.99
2018-06-03T01:41:51.838Z,99.99
2018-06-03T01:42:51.832Z,99.99
2018-06-03T01:43:51.812Z,99.99
2018-06-03T01:44:51.809Z,99.99
2018-06-03T01:46:51.930Z,99.99
2018-06-03T01:47:51.772Z,99.99
2018-06-03T01:48:51.963Z,99.99
2018-06-03T01:49:51.750Z,99.99
2018-06-03T01:50:51.779Z,99.99
2018-06-03T01:51:51.747Z,99.99
2018-06-03T01:52:51.719Z,99.99
2018-06-03T01:53:51.702Z,99.99
2018-06-03T01:54:51.744Z,99.99
2018-06-03T01:55:51.680Z,99.99
2018-06-03T01:56:51.716Z,99.99
2018-06-03T01:57:51.657Z,99.99
2018-06-03T01:58:51.649Z,99.99
2018-06-03T01:59:51.632Z,99.99
2018-06-03T02:00:51.623Z,99.99
2018-06-03T02:01:51.607Z,99.99
2018-06-03T02:02:51.597Z,99.99
2018-06-03T02:03:51.586Z,99.99
2018-06-03T02:04:51.576Z,99.99
2018-06-03T02:05:51.557Z,99.99
2018-06-03T02:07:51.538Z,99.99
2018-06-03T02:08:51.531Z,99.99
2018-06-03T02:09:51.513Z,99.99
2018-06-03T02:10:51.503Z,99.99
2018-06-03T02:11:51.500Z,99.99
2018-06-03T02:13:51.471Z,99.99
2018-06-03T02:14:51.461Z,99.99
2018-06-03T02:15:51.456Z,99.99
2018-06-03T02:16:51.432Z,99.99
2018-06-03T02:17:51.433Z,99.99
2018-06-03T02:18:51.416Z,99.99
2018-06-03T02:19:51.403Z,99.99
2018-06-03T02:20:51.390Z,99.99
2018-06-03T02:21:51.380Z,99.99
2018-06-03T02:23:51.359Z,99.99
2018-06-03T02:24:51.347Z,99.99
2018-06-03T02:25:51.330Z,99.99
2018-06-03T02:26:51.327Z,99.99
2018-06-03T02:27:51.308Z,99.99
2018-06-03T02:28:51.298Z,99.99
2018-06-03T02:30:51.277Z,99.99
2018-06-03T02:31:51.277Z,99.99
2018-06-03T02:32:51.261Z,99.99
2018-06-03T02:33:51.254Z,99.99
2018-06-03T02:34:51.229Z,99.99
2018-06-03T02:35:51.218Z,99.99
2018-06-03T02:36:51.212Z,99.99
2018-06-03T02:37:51.196Z,99.99
2018-06-03T02:38:51.181Z,99.99
2018-06-03T02:39:51.172Z,99.99
2018-06-03T02:40:51.159Z,99.99
2018-06-03T02:41:51.149Z,99.99
2018-06-03T02:42:51.139Z,99.99
2018-06-03T02:43:51.129Z,99.99
2018-06-03T02:44:51.118Z,99.99
2018-06-03T02:45:51.104Z,99.99
2018-06-03T02:46:51.090Z,99.99
2018-06-03T02:47:51.072Z,99.99
2018-06-03T02:48:51.069Z,99.99
2018-06-03T02:49:51.066Z,99.99
2018-06-03T02:51:51.034Z,99.99
2018-06-03T02:52:51.029Z,99.99
2018-06-03T02:53:51.019Z,99.99
2018-06-03T02:54:50.999Z,99.99
2018-06-03T02:55:50.991Z,99.99
2018-06-03T02:56:50.972Z,99.99
2018-06-03T02:57:50.957Z,99.99
2018-06-03T02:58:50.951Z,99.99
2018-06-03T02:59:50.938Z,99.99
2018-06-03T03:00:50.931Z,99.99
2018-06-03T03:01:50.912Z,99.99
2018-06-03T03:04:50.888Z,99.99
2018-06-03T03:05:50.872Z,99.99
2018-06-03T03:07:50.848Z,99.99
2018-06-03T03:08:50.845Z,99.99
2018-06-03T03:09:50.816Z,99.99
2018-06-03T03:10:50.815Z,99.99
2018-06-03T03:11:50.799Z,99.99
2018-06-03T03:12:50.794Z,99.99
2018-06-03T03:13:50.781Z,99.99
2018-06-03T03:14:50.766Z,99.99
2018-06-03T03:16:51.046Z,99.99
2018-06-03T03:17:50.731Z,99.99
2018-06-03T03:18:50.758Z,99.99
2018-06-03T03:19:50.708Z,99.99
2018-06-03T03:20:50.695Z,99.99
2018-06-03T03:21:50.683Z,99.99
2018-06-03T03:22:50.676Z,99.99
2018-06-03T03:23:50.658Z,99.99
2018-06-03T03:24:50.645Z,99.99
2018-06-03T03:25:50.635Z,99.99
2018-06-03T03:26:50.624Z,99.99
2018-06-03T03:27:50.608Z,99.99
2018-06-03T03:28:50.599Z,99.99
2018-06-03T03:29:50.592Z,99.99
2018-06-03T03:31:50.573Z,99.99
2018-06-03T03:32:50.550Z,99.99
2018-06-03T03:33:50.543Z,99.99
2018-06-03T03:34:50.524Z,99.99
2018-06-03T03:35:50.513Z,99.99
2018-06-03T03:36:50.515Z,99.99
2018-06-03T03:37:50.502Z,99.99
2018-06-03T03:38:50.489Z,99.99
2018-06-03T03:39:50.472Z,99.99
2018-06-03T03:40:50.457Z,99.99
2018-06-03T03:41:50.445Z,99.99
2018-06-03T03:42:50.435Z,99.99
2018-06-03T03:43:50.431Z,99.99
2018-06-03T03:44:50.412Z,99.99
2018-06-03T03:45:50.400Z,99.99
2018-06-03T03:46:50.397Z,99.99
2018-06-03T03:47:50.383Z,99.99
2018-06-03T03:48:50.372Z,99.99
2018-06-03T03:49:50.352Z,99.99
2018-06-03T03:50:50.354Z,99.99
2018-06-03T03:51:50.331Z,99.99
2018-06-03T03:52:50.318Z,99.99
2018-06-03T03:53:50.307Z,99.99
2018-06-03T03:54:50.302Z,99.99
2018-06-03T03:55:50.293Z,99.99
2018-06-03T03:56:50.372Z,99.99
2018-06-03T03:57:50.260Z,99.99
2018-06-03T03:58:50.250Z,99.99
2018-06-03T03:59:50.238Z,99.99
2018-06-03T04:00:50.224Z,99.99
2018-06-03T04:01:50.218Z,99.99
2018-06-03T04:02:50.202Z,99.99
2018-06-03T04:03:50.193Z,99.99
2018-06-03T04:04:50.183Z,99.99
2018-06-03T04:05:50.169Z,99.99
2018-06-03T04:07:50.142Z,99.99
2018-06-03T04:08:50.134Z,99.99
2018-06-03T04:11:50.099Z,99.99
2018-06-03T04:12:50.087Z,99.99
2018-06-03T04:13:50.080Z,99.99
2018-06-03T04:14:50.058Z,99.99
2018-06-03T04:15:50.049Z,99.99
2018-06-03T04:16:50.042Z,99.99
2018-06-03T04:19:50.009Z,99.99
2018-06-03T04:20:49.996Z,99.99
2018-06-03T04:21:49.983Z,99.99
2018-06-03T04:22:49.970Z,99.99
2018-06-03T04:23:49.958Z,99.99
2018-06-03T04:24:49.945Z,99.99
2018-06-03T04:25:49.937Z,99.99
2018-06-03T04:26:49.930Z,99.99
2018-06-03T04:28:49.899Z,99.99
2018-06-03T04:29:49.890Z,99.99
2018-06-03T04:30:49.876Z,99.99
2018-06-03T04:31:49.868Z,99.99
2018-06-03T04:32:49.861Z,99.99
2018-06-03T04:33:49.849Z,99.99
2018-06-03T04:34:49.832Z,99.99
2018-06-03T04:35:49.816Z,99.99
2018-06-03T04:36:49.810Z,99.99
2018-06-03T04:37:49.800Z,99.99
2018-06-03T04:38:49.791Z,99.99
2018-06-03T04:39:49.777Z,99.99
2018-06-03T04:40:49.758Z,99.99
2018-06-03T04:41:49.752Z,99.99
2018-06-03T04:42:49.744Z,99.99
2018-06-03T04:43:49.733Z,99.99
2018-06-03T04:44:49.724Z,99.99
2018-06-03T04:45:49.707Z,99.99
2018-06-03T04:46:49.699Z,99.99
2018-06-03T04:47:49.684Z,99.99
2018-06-03T04:48:49.707Z,99.99
2018-06-03T04:49:49.663Z,99.99
2018-06-03T04:50:49.643Z,99.99
2018-06-03T04:51:49.641Z,99.99
2018-06-03T04:52:49.627Z,99.99
2018-06-03T04:53:49.642Z,99.99
2018-06-03T04:54:49.611Z,99.99
2018-06-03T04:55:49.592Z,99.99
2018-06-03T04:56:49.586Z,99.99
2018-06-03T04:57:49.569Z,99.99
2018-06-03T04:58:49.564Z,99.99
2018-06-03T04:59:49.552Z,99.99
2018-06-03T05:00:49.535Z,99.99
2018-06-03T05:01:49.525Z,99.99
2018-06-03T05:02:49.521Z,99.99
2018-06-03T05:03:49.500Z,99.99
2018-06-03T05:04:49.489Z,99.99
2018-06-03T05:05:49.484Z,99.99
2018-06-03T05:06:49.474Z,99.99
2018-06-03T05:07:49.481Z,99.99
2018-06-03T05:08:49.441Z,99.99
2018-06-03T05:09:49.479Z,99.99
2018-06-03T05:10:49.429Z,99.99
2018-06-03T05:11:49.413Z,99.99
2018-06-03T05:12:49.391Z,99.99
2018-06-03T05:13:49.393Z,99.99
2018-06-03T05:14:49.377Z,99.99
2018-06-03T05:15:49.367Z,99.99
2018-06-03T05:16:49.363Z,99.99
2018-06-03T05:17:49.352Z,99.99
2018-06-03T05:18:49.333Z,99.99
2018-06-03T05:19:49.322Z,99.99
2018-06-03T05:20:49.307Z,99.99
2018-06-03T05:21:49.296Z,99.99
2018-06-03T05:22:49.287Z,99.99
2018-06-03T05:23:49.274Z,99.99
2018-06-03T05:24:49.293Z,99.99
2018-06-03T05:25:49.249Z,99.99
2018-06-03T05:26:49.242Z,99.99
2018-06-03T05:27:49.226Z,99.99
2018-06-03T05:28:49.224Z,99.99
2018-06-03T05:29:49.207Z,99.99
2018-06-03T05:30:49.198Z,99.99
2018-06-03T05:31:49.188Z,99.99
2018-06-03T05:32:49.174Z,99.99
2018-06-03T05:33:49.167Z,99.99
2018-06-03T05:34:49.156Z,99.99
2018-06-03T05:35:49.145Z,99.99
2018-06-03T05:36:49.129Z,99.99
2018-06-03T05:37:49.115Z,99.99
2018-06-03T05:38:49.106Z,99.99
2018-06-03T05:39:49.119Z,99.99
2018-06-03T05:40:49.085Z,99.99
2018-06-03T05:41:49.081Z,99.99
2018-06-03T05:42:49.064Z,99.99
2018-06-03T05:43:49.052Z,99.99
2018-06-03T05:44:49.043Z,99.99
2018-06-03T05:45:49.026Z,99.99
2018-06-03T05:46:49.017Z,99.99
2018-06-03T05:47:49.007Z,99.99
2018-06-03T05:48:48.999Z,99.99
2018-06-03T05:49:48.992Z,99.99
2018-06-03T05:50:48.970Z,99.99
2018-06-03T05:51:48.962Z,99.99
2018-06-03T05:52:48.960Z,99.99
2018-06-03T05:54:49.063Z,99.99
2018-06-03T05:55:48.923Z,99.99
2018-06-03T05:56:48.912Z,99.99
2018-06-03T05:57:48.896Z,99.99
2018-06-03T05:58:48.891Z,99.99
2018-06-03T06:00:48.963Z,99.99
2018-06-03T06:01:48.854Z,99.99
2018-06-03T06:02:48.899Z,99.99
2018-06-03T06:03:48.836Z,99.99
2018-06-03T06:04:48.921Z,99.99
2018-06-03T06:05:48.809Z,99.99
2018-06-03T06:06:48.795Z,99.99
2018-06-03T06:07:48.784Z,99.99
2018-06-03T06:08:48.781Z,99.99
2018-06-03T06:09:48.762Z,99.99
2018-06-03T06:10:48.754Z,99.99
2018-06-03T06:11:48.755Z,99.99
2018-06-03T06:12:48.736Z,99.99
2018-06-03T06:13:48.725Z,99.99
2018-06-03T06:14:48.723Z,99.99
2018-06-03T06:15:48.702Z,99.99
2018-06-03T06:16:48.694Z,99.99
2018-06-03T06:17:48.682Z,99.99
2018-06-03T06:18:48.669Z,99.99
2018-06-03T06:19:48.656Z,99.99
2018-06-03T06:20:48.643Z,99.99
2018-06-03T06:21:48.637Z,99.99
2018-06-03T06:22:48.627Z,99.99
2018-06-03T06:23:48.621Z,99.99
2018-06-03T06:24:48.612Z,99.99
2018-06-03T06:25:48.587Z,99.99
2018-06-03T06:26:48.587Z,99.99
2018-06-03T06:27:48.575Z,99.99
2018-06-03T06:28:48.569Z,99.99
2018-06-03T06:29:48.549Z,99.99
2018-06-03T06:30:48.544Z,99.99
2018-06-03T06:31:48.529Z,99.99
2018-06-03T06:32:48.514Z,99.99
2018-06-03T06:33:48.504Z,99.99
2018-06-03T06:34:48.553Z,99.99
2018-06-03T06:35:48.487Z,99.99
2018-06-03T06:36:48.479Z,99.99
2018-06-03T06:37:48.469Z,99.99
2018-06-03T06:38:48.456Z,99.99
2018-06-03T06:39:48.444Z,99.99
2018-06-03T06:40:48.483Z,99.99
2018-06-03T06:41:48.423Z,99.88
2018-06-03T06:42:48.415Z,99.88
2018-06-03T06:43:48.408Z,99.40
2018-06-03T06:44:48.391Z,99.79
2018-06-03T06:45:48.387Z,99.11
2018-06-03T06:46:48.382Z,99.99
2018-06-03T06:47:48.369Z,99.99
2018-06-03T06:48:48.356Z,99.99
2018-06-03T06:49:48.349Z,99.99
2018-06-03T06:50:48.340Z,99.88
2018-06-03T06:51:48.332Z,98.82
2018-06-03T06:52:48.313Z,97.96
2018-06-03T06:53:48.307Z,98.34
2018-06-03T06:54:48.301Z,97.96
2018-06-03T06:55:48.289Z,98.34
2018-06-03T06:56:48.283Z,98.34
2018-06-03T06:57:48.269Z,98.63
2018-06-03T06:58:48.256Z,98.34
2018-06-03T06:59:48.245Z,98.34
2018-06-03T07:00:48.245Z,97.86
2018-06-03T07:01:48.233Z,98.25
2018-06-03T07:02:48.219Z,98.44
2018-06-03T07:03:48.210Z,99.21
2018-06-03T07:04:48.201Z,99.79
2018-06-03T07:05:48.190Z,97.86
2018-06-03T07:06:48.195Z,98.34
2018-06-03T07:07:48.174Z,97.28
2018-06-03T07:08:48.165Z,96.99
2018-06-03T07:09:48.155Z,97.57
2018-06-03T07:12:48.128Z,96.70
2018-06-03T07:13:48.118Z,96.32
2018-06-03T07:14:48.108Z,94.78
2018-06-03T07:15:48.145Z,95.84
2018-06-03T07:16:48.086Z,96.12
2018-06-03T07:17:48.080Z,96.41
2018-06-03T07:18:48.067Z,95.45
2018-06-03T07:19:48.056Z,95.36
2018-06-03T07:20:48.048Z,95.54
2018-06-03T07:21:48.049Z,95.93
2018-06-03T07:22:48.033Z,95.45
2018-06-03T07:23:48.027Z,95.54
2018-06-03T07:24:48.011Z,95.74
2018-06-03T07:26:47.990Z,94.39
2018-06-03T07:27:47.981Z,94.20
2018-06-03T07:28:47.973Z,94.29
2018-06-03T07:29:47.967Z,95.16
2018-06-03T07:30:47.958Z,94.87
2018-06-03T07:32:47.927Z,93.71
2018-06-03T07:33:47.920Z,93.04
2018-06-03T07:34:47.911Z,92.46
2018-06-03T07:35:47.901Z,93.52
2018-06-03T07:36:47.893Z,93.76
2018-06-03T07:37:47.888Z,92.99
2018-06-03T07:38:47.876Z,93.08
2018-06-03T07:39:47.860Z,92.70
2018-06-03T07:40:47.845Z,92.89
2018-06-03T07:42:47.835Z,92.94
2018-06-03T07:43:47.818Z,93.81
2018-06-03T07:44:47.815Z,93.52
2018-06-03T07:45:47.807Z,93.91
2018-06-03T07:46:47.842Z,93.08
2018-06-03T07:47:47.789Z,91.74
2018-06-03T07:48:47.848Z,90.96
2018-06-03T07:49:47.761Z,89.71
2018-06-03T07:50:47.786Z,88.79
2018-06-03T07:51:47.753Z,89.37
2018-06-03T07:52:47.778Z,90.19
2018-06-03T07:53:47.727Z,89.32
2018-06-03T07:54:47.778Z,89.32
2018-06-03T07:55:47.700Z,89.03
2018-06-03T07:57:47.689Z,88.50
2018-06-03T07:58:47.677Z,89.47
2018-06-03T07:59:47.665Z,88.02
2018-06-03T08:00:47.659Z,88.40
2018-06-03T08:01:47.650Z,89.37
2018-06-03T08:02:47.687Z,88.54
2018-06-03T08:03:47.617Z,87.48
2018-06-03T08:04:47.618Z,88.02
2018-06-03T08:05:47.598Z,86.90
2018-06-03T08:06:47.593Z,86.90
2018-06-03T08:07:47.633Z,87.87
2018-06-03T08:08:47.578Z,87.96
2018-06-03T08:09:47.568Z,87.67
2018-06-03T08:10:47.555Z,87.58
2018-06-03T08:11:47.564Z,86.03
2018-06-03T08:12:47.539Z,86.22
2018-06-03T08:13:47.600Z,85.45
2018-06-03T08:14:47.529Z,85.36
2018-06-03T08:15:47.509Z,85.45
2018-06-03T08:16:47.503Z,85.84
2018-06-03T08:17:47.497Z,84.58
2018-06-03T08:18:47.487Z,84.78
2018-06-03T08:19:47.468Z,85.59
2018-06-03T08:20:47.465Z,85.30
2018-06-03T08:21:47.452Z,85.49
2018-06-03T08:22:47.450Z,84.93
2018-06-03T08:23:47.436Z,86.28
2018-06-03T08:24:47.432Z,86.28
2018-06-03T08:25:47.420Z,87.34
2018-06-03T08:26:47.411Z,88.21
2018-06-03T08:27:47.400Z,86.86
2018-06-03T08:28:47.394Z,85.31
2018-06-03T08:29:47.426Z,85.31
2018-06-03T08:30:47.384Z,85.74
2018-06-03T08:31:47.366Z,85.84
2018-06-03T08:32:47.354Z,86.18
2018-06-03T08:33:47.340Z,86.52
2018-06-03T08:34:47.337Z,86.42
2018-06-03T08:35:47.326Z,86.86
2018-06-03T08:36:47.314Z,85.45
2018-06-03T08:37:47.308Z,85.74
2018-06-03T08:38:47.295Z,85.31
2018-06-03T08:39:47.288Z,86.13
2018-06-03T08:40:47.282Z,87.00
2018-06-03T08:41:47.269Z,87.05
2018-06-03T08:42:47.262Z,87.63
2018-06-03T08:43:47.250Z,87.24
2018-06-03T08:44:47.244Z,86.66
2018-06-03T08:45:47.234Z,88.06
2018-06-03T08:46:47.234Z,87.53
2018-06-03T08:47:47.211Z,87.44
2018-06-03T08:49:47.193Z,88.69
2018-06-03T08:50:47.187Z,89.37
2018-06-03T08:51:47.169Z,88.98
2018-06-03T08:52:47.168Z,88.55
2018-06-03T08:53:47.164Z,89.71
2018-06-03T08:54:47.148Z,90.29
2018-06-03T08:55:47.131Z,89.90
2018-06-03T08:56:47.127Z,89.51
2018-06-03T08:57:47.118Z,90.09
2018-06-03T08:58:47.105Z,90.15
2018-06-03T08:59:47.098Z,89.90
2018-06-03T09:00:47.094Z,90.29
2018-06-03T09:01:47.079Z,90.87
2018-06-03T09:02:47.070Z,90.87
2018-06-03T09:03:47.062Z,90.29
2018-06-03T09:04:47.050Z,91.06
2018-06-03T09:05:47.047Z,90.29
2018-06-03T09:06:47.038Z,90.58
2018-06-03T09:07:47.026Z,89.90
2018-06-03T09:09:46.996Z,90.77
2018-06-03T09:10:46.993Z,90.19
2018-06-03T09:11:46.978Z,89.47
2018-06-03T09:12:46.972Z,89.76
2018-06-03T09:13:46.953Z,90.82
2018-06-03T09:14:46.956Z,89.42
2018-06-03T09:15:46.942Z,89.23
2018-06-03T09:16:46.931Z,89.51
2018-06-03T09:17:46.933Z,89.81
2018-06-03T09:18:46.968Z,89.42
2018-06-03T09:19:46.903Z,89.23
2018-06-03T09:20:46.892Z,89.65
2018-06-03T09:21:46.883Z,88.36
2018-06-03T09:22:46.886Z,89.13
2018-06-03T09:23:46.858Z,89.37
2018-06-03T09:24:46.851Z,90.24
2018-06-03T09:25:46.841Z,91.98
2018-06-03T09:26:46.833Z,92.17
2018-06-03T09:27:46.816Z,92.32
2018-06-03T09:28:46.809Z,92.99
2018-06-03T09:29:46.800Z,93.76
2018-06-03T09:30:46.793Z,93.66
2018-06-03T09:31:46.782Z,93.76
2018-06-03T09:32:46.872Z,93.38
2018-06-03T09:33:46.760Z,93.96
2018-06-03T09:34:46.852Z,94.29
2018-06-03T09:35:46.755Z,95.16
2018-06-03T09:36:46.734Z,95.55
2018-06-03T09:37:46.718Z,94.97
2018-06-03T09:38:46.766Z,95.69
2018-06-03T09:39:46.709Z,95.31
2018-06-03T09:40:46.688Z,95.69
2018-06-03T09:41:46.677Z,95.59
2018-06-03T09:42:46.718Z,93.48
2018-06-03T09:43:46.657Z,91.78
2018-06-03T09:44:46.702Z,90.92
2018-06-03T09:45:46.651Z,91.30
2018-06-03T09:46:46.632Z,91.20
2018-06-03T09:47:46.630Z,90.67
2018-06-03T09:48:46.611Z,90.58
2018-06-03T09:50:46.587Z,87.97
2018-06-03T09:51:46.577Z,86.43
2018-06-03T09:52:46.564Z,86.43
2018-06-03T09:53:46.571Z,86.76
2018-06-03T09:54:46.542Z,86.66
2018-06-03T09:55:46.587Z,85.70
2018-06-03T09:56:46.529Z,84.74
2018-06-03T09:57:46.519Z,83.29
2018-06-03T09:58:46.510Z,82.65
2018-06-03T09:59:46.501Z,83.08
2018-06-03T10:00:46.531Z,81.46
2018-06-03T10:01:46.477Z,77.09
2018-06-03T10:02:46.471Z,74.84
2018-06-03T10:03:46.462Z,72.87
2018-06-03T10:04:46.456Z,67.31
2018-06-03T10:05:46.454Z,64.88
2018-06-03T10:06:46.433Z,66.17
2018-06-03T10:07:46.430Z,66.08
2018-06-03T10:08:46.424Z,66.02
2018-06-03T10:09:46.417Z,66.96
2018-06-03T10:11:46.392Z,61.35
2018-06-03T10:12:46.391Z,60.28
2018-06-03T10:13:46.390Z,60.47
2018-06-03T10:14:46.402Z,61.74
2018-06-03T10:15:46.496Z,62.58
2018-06-03T10:16:46.364Z,63.55
2018-06-03T10:17:46.357Z,62.93
2018-06-03T10:18:46.360Z,62.54
2018-06-03T10:19:46.365Z,63.68
2018-06-03T10:20:46.339Z,63.36
2018-06-03T10:21:46.440Z,63.04
2018-06-03T10:22:46.329Z,64.33
2018-06-03T10:23:46.322Z,66.05
2018-06-03T10:24:46.321Z,64.72
2018-06-03T10:25:46.314Z,67.95
2018-06-03T10:26:46.306Z,68.82
2018-06-03T10:27:46.301Z,69.75
2018-06-03T10:28:46.293Z,70.20
2018-06-03T10:29:46.281Z,72.33
2018-06-03T10:30:46.289Z,72.24
2018-06-03T10:31:46.325Z,72.24
2018-06-03T10:32:46.258Z,72.81
2018-06-03T10:33:46.248Z,71.98
2018-06-03T10:34:46.252Z,72.85
2018-06-03T10:35:46.249Z,74.82
2018-06-03T10:39:46.208Z,72.21
2018-06-03T10:40:46.217Z,72.89
2018-06-03T10:41:46.208Z,72.21
2018-06-03T10:44:46.181Z,71.62
2018-06-03T10:45:46.182Z,71.66
2018-06-03T10:46:46.156Z,70.79
2018-06-03T10:48:46.143Z,68.47
2018-06-03T10:49:46.140Z,69.43
2018-06-03T10:50:46.129Z,70.50
2018-06-03T10:51:46.128Z,69.95
2018-06-03T10:52:46.112Z,70.63
2018-06-03T10:53:46.109Z,70.18
2018-06-03T10:54:46.107Z,67.37
2018-06-03T10:55:46.090Z,66.53
2018-06-03T10:56:46.086Z,64.69
2018-06-03T10:57:46.131Z,64.33
2018-06-03T10:58:46.077Z,63.95
2018-06-03T10:59:46.098Z,62.52
2018-06-03T11:00:46.065Z,62.07
2018-06-03T11:01:46.050Z,60.15
2018-06-03T11:02:46.049Z,59.86
2018-06-03T11:03:46.038Z,59.99
2018-06-03T11:04:46.031Z,60.47
2018-06-03T11:05:46.032Z,60.99
2018-06-03T11:06:46.017Z,59.63
2018-06-03T11:08:46.004Z,58.87
2018-06-03T11:09:46.004Z,57.74
2018-06-03T11:10:45.999Z,56.37
2018-06-03T11:11:45.987Z,56.27
2018-06-03T11:12:45.981Z,55.50
2018-06-03T11:13:45.973Z,55.21
2018-06-03T11:14:45.972Z,54.82
2018-06-03T11:15:45.972Z,56.11
2018-06-03T11:16:45.965Z,55.13
2018-06-03T11:17:45.952Z,54.06
2018-06-03T11:18:45.952Z,54.46
2018-06-03T11:19:45.943Z,54.75
2018-06-03T11:20:45.943Z,53.94
2018-06-03T11:21:45.930Z,54.55
2018-06-03T11:22:45.924Z,56.79
2018-06-03T11:23:45.921Z,55.72
2018-06-03T11:24:45.911Z,55.50
2018-06-03T11:25:45.908Z,56.40
2018-06-03T11:26:45.916Z,57.28
2018-06-03T11:27:45.898Z,57.50
2018-06-03T11:28:45.891Z,55.94
2018-06-03T11:29:45.887Z,54.58
2018-06-03T11:30:45.893Z,53.63
2018-06-03T11:31:45.882Z,51.29
2018-06-03T11:32:45.873Z,51.56
2018-06-03T11:33:45.866Z,52.53
2018-06-03T11:34:45.866Z,53.73
2018-06-03T11:35:45.859Z,53.53
2018-06-03T11:36:45.851Z,53.92
2018-06-03T11:37:45.844Z,51.87
2018-06-03T11:38:45.847Z,51.58
2018-06-03T11:39:45.887Z,53.63
2018-06-03T11:40:45.839Z,51.19
2018-06-03T11:41:45.827Z,50.51
2018-06-03T11:42:45.816Z,51.29
2018-06-03T11:43:45.822Z,50.43
2018-06-03T11:45:45.812Z,51.12
2018-06-03T11:46:45.803Z,49.46
2018-06-03T11:47:45.799Z,49.05
2018-06-03T11:48:45.799Z,50.68
2018-06-03T11:49:45.791Z,50.56
2018-06-03T11:50:45.785Z,52.22
2018-06-03T11:51:45.782Z,52.48
2018-06-03T11:52:45.782Z,53.55
2018-06-03T11:53:45.810Z,54.50
2018-06-03T11:54:45.773Z,54.40
2018-06-03T11:55:45.753Z,54.18
2018-06-03T11:56:45.762Z,53.30
2018-06-03T11:57:45.757Z,53.99
2018-06-03T11:58:45.747Z,54.57
2018-06-03T12:00:45.737Z,54.11
2018-06-03T12:01:45.754Z,53.72
2018-06-03T12:02:45.728Z,53.85
2018-06-03T12:03:45.717Z,53.85
2018-06-03T12:04:45.714Z,54.85
2018-06-03T12:05:45.712Z,54.06
2018-06-03T12:06:45.708Z,54.26
2018-06-03T12:07:45.697Z,53.26
2018-06-03T12:08:45.696Z,54.01
2018-06-03T12:09:45.692Z,54.69
2018-06-03T12:10:45.755Z,54.89
2018-06-03T12:11:45.679Z,53.50
2018-06-03T12:12:45.676Z,55.66
2018-06-03T12:13:45.670Z,56.27
2018-06-03T12:14:45.718Z,55.18
2018-06-03T12:15:45.663Z,55.08
2018-06-03T12:16:45.656Z,53.33
2018-06-03T12:17:45.648Z,53.40
2018-06-03T12:18:45.638Z,54.47
2018-06-03T12:19:45.640Z,53.99
2018-06-03T12:20:45.638Z,54.90
2018-06-03T12:21:45.633Z,56.07
2018-06-03T12:22:45.622Z,56.77
2018-06-03T12:23:45.611Z,57.07
2018-06-03T12:24:45.612Z,57.39
2018-06-03T12:25:45.608Z,57.49
2018-06-03T12:26:45.595Z,56.51
2018-06-03T12:27:45.588Z,56.41
2018-06-03T12:28:45.631Z,59.33
2018-06-03T12:29:45.581Z,57.22
2018-06-03T12:30:45.583Z,57.87
2018-06-03T12:31:45.571Z,58.26
2018-06-03T12:32:45.571Z,58.17
2018-06-03T12:33:45.562Z,57.87
2018-06-03T12:34:45.558Z,57.65
2018-06-03T12:35:45.551Z,59.69
2018-06-03T12:36:45.542Z,59.59
2018-06-03T12:37:45.540Z,59.47
2018-06-03T12:38:45.539Z,59.76
2018-06-03T12:39:45.530Z,59.05
2018-06-03T12:40:45.526Z,60.54
2018-06-03T12:41:45.634Z,60.61
2018-06-03T12:42:45.521Z,60.90
2018-06-03T12:43:45.568Z,61.87
2018-06-03T12:44:45.502Z,62.65
2018-06-03T12:45:45.513Z,61.48
2018-06-03T12:48:45.528Z,61.58
2018-06-03T12:49:45.469Z,61.35
2018-06-03T12:50:45.464Z,61.16
2018-06-03T12:51:45.508Z,60.97
2018-06-03T12:52:45.447Z,60.68
2018-06-03T12:53:45.460Z,61.16
2018-06-03T12:54:45.437Z,62.52
2018-06-03T12:55:45.437Z,60.41
2018-06-03T12:57:45.463Z,60.86
2018-06-03T12:58:45.416Z,60.18
2018-06-03T12:59:45.409Z,59.43
2018-06-03T13:00:45.398Z,59.33
2018-06-03T13:01:45.390Z,59.50
2018-06-03T13:02:45.435Z,61.05
2018-06-03T13:03:45.379Z,60.50
2018-06-03T13:04:45.376Z,60.57
2018-06-03T13:05:45.373Z,60.38
2018-06-03T13:06:45.363Z,60.93
2018-06-03T13:07:45.357Z,61.22
2018-06-03T13:08:45.353Z,62.29
2018-06-03T13:09:45.347Z,61.32
2018-06-03T13:10:45.338Z,62.51
2018-06-03T13:11:45.387Z,64.04
2018-06-03T13:12:45.325Z,60.47
2018-06-03T13:13:45.318Z,60.50
2018-06-03T13:14:45.310Z,59.53
2018-06-03T13:15:45.314Z,56.81
2018-06-03T13:16:45.299Z,58.26
2018-06-03T13:17:45.299Z,59.53
2018-06-03T13:19:45.292Z,58.10
2018-06-03T13:20:45.299Z,59.59
2018-06-03T13:21:45.268Z,59.69
2018-06-03T13:22:45.267Z,56.40
2018-06-03T13:23:45.264Z,54.94
2018-06-03T13:24:45.258Z,54.85
2018-06-03T13:25:45.253Z,57.57
2018-06-03T13:26:45.251Z,58.06
2018-06-03T13:27:45.286Z,56.01
2018-06-03T13:28:45.241Z,55.82
2018-06-03T13:29:45.229Z,55.13
2018-06-03T13:30:45.232Z,56.57
2018-06-03T13:31:45.218Z,56.61
2018-06-03T13:33:45.214Z,56.71
2018-06-03T13:34:45.210Z,56.61
2018-06-03T13:35:45.200Z,58.07
2018-06-03T13:36:45.197Z,58.46
2018-06-03T13:37:45.191Z,58.20
2018-06-03T13:38:45.179Z,58.97
2018-06-03T13:39:45.183Z,57.74
2018-06-03T13:40:45.183Z,57.32
2018-06-03T13:41:45.167Z,58.49
2018-06-03T13:42:45.172Z,58.00
2018-06-03T13:43:45.212Z,57.32
2018-06-03T13:44:45.148Z,56.41
2018-06-03T13:45:45.148Z,57.97
2018-06-03T13:46:45.142Z,57.68
2018-06-03T13:47:45.138Z,58.07
2018-06-03T13:48:45.129Z,57.29
2018-06-03T13:49:45.120Z,58.07
2018-06-03T13:50:45.123Z,56.41
2018-06-03T13:51:45.116Z,57.49